createdAt,value
2019-04-06T00:00:24.519Z,91.70
2019-04-06T00:02:54.953Z,91.90
2019-04-06T00:05:25.143Z,92.30
2019-04-06T00:07:55.205Z,92.00
2019-04-06T00:10:25.330Z,92.20
2019-04-06T00:12:55.427Z,92.50
2019-04-06T00:15:25.867Z,92.40
2019-04-06T00:17:55.972Z,92.40
2019-04-06T00:20:26.043Z,92.40
2019-04-06T00:22:57.234Z,92.50
2019-04-06T00:25:27.482Z,92.50
2019-04-06T00:27:57.633Z,92.20
2019-04-06T00:30:29.412Z,92.20
2019-04-06T00:33:03.907Z,92.30
2019-04-06T00:35:34.006Z,93.00
2019-04-06T00:38:04.195Z,93.50
2019-04-06T00:40:34.608Z,93.60
2019-04-06T00:43:05.494Z,94.10
2019-04-06T00:45:35.660Z,94.00
2019-04-06T00:48:05.860Z,94.20
2019-04-06T00:50:35.907Z,94.40
2019-04-06T00:53:06.065Z,94.50
2019-04-06T00:55:36.126Z,94.20
2019-04-06T00:58:06.301Z,94.20
2019-04-06T01:00:36.441Z,94.00
2019-04-06T01:03:06.712Z,93.90
2019-04-06T01:05:36.853Z,93.90
2019-04-06T01:08:07.142Z,94.00
2019-04-06T01:10:37.189Z,93.70
2019-04-06T01:13:07.393Z,93.40
2019-04-06T01:15:37.510Z,93.60
2019-04-06T01:18:07.706Z,93.50
2019-04-06T01:20:37.825Z,93.40
2019-04-06T01:23:07.966Z,93.40
2019-04-06T01:25:38.085Z,93.60
2019-04-06T01:28:08.155Z,93.80
2019-04-06T01:30:38.282Z,94.20
2019-04-06T01:33:08.407Z,94.50
2019-04-06T01:35:38.469Z,94.30
2019-04-06T01:38:08.748Z,94.20
2019-04-06T01:40:39.761Z,94.10
2019-04-06T01:43:09.961Z,94.20
2019-04-06T01:45:40.080Z,94.30
2019-04-06T01:48:10.132Z,94.10
2019-04-06T01:50:40.264Z,94.30
2019-04-06T01:53:10.385Z,94.60
2019-04-06T01:55:40.455Z,94.60
2019-04-06T01:58:10.492Z,94.50
2019-04-06T02:00:42.269Z,94.40
2019-04-06T02:03:13.387Z,94.90
2019-04-06T02:05:43.547Z,94.50
2019-04-06T02:08:13.694Z,94.50
2019-04-06T02:10:43.856Z,94.60
2019-04-06T02:13:13.898Z,94.90
2019-04-06T02:15:43.956Z,94.90
2019-04-06T02:18:13.999Z,94.80
2019-04-06T02:20:44.057Z,94.80
2019-04-06T02:23:15.619Z,95.00
2019-04-06T02:25:45.661Z,95.20
2019-04-06T02:28:15.686Z,95.30
2019-04-06T02:31:02.534Z,95.30
2019-04-06T02:33:50.596Z,95.20
2019-04-06T02:36:31.406Z,95.50
2019-04-06T02:39:11.856Z,95.40
2019-04-06T02:41:44.844Z,95.40
2019-04-06T02:44:18.029Z,95.40
2019-04-06T02:46:49.318Z,95.50
2019-04-06T02:49:19.357Z,95.60
2019-04-06T02:51:50.524Z,95.40
2019-04-06T02:54:20.679Z,95.30
2019-04-06T02:56:50.707Z,95.50
2019-04-06T02:59:20.891Z,95.30
2019-04-06T03:01:51.064Z,95.30
2019-04-06T03:04:21.236Z,95.30
2019-04-06T03:06:51.268Z,95.10
2019-04-06T03:09:21.377Z,95.00
2019-04-06T03:11:51.469Z,95.00
2019-04-06T03:14:21.570Z,95.10
2019-04-06T03:16:51.598Z,95.10
2019-04-06T03:19:21.713Z,95.10
2019-04-06T03:21:51.738Z,95.60
2019-04-06T03:24:21.785Z,95.00
2019-04-06T03:27:01.083Z,95.10
2019-04-06T03:29:23.606Z,95.10
2019-04-06T03:31:53.734Z,95.10
2019-04-06T03:34:23.743Z,94.80
2019-04-06T03:36:53.767Z,95.00
2019-04-06T03:39:23.805Z,95.20
2019-04-06T03:41:53.980Z,95.30
2019-04-06T03:44:24.178Z,95.30
2019-04-06T03:46:54.496Z,95.20
2019-04-06T03:49:24.756Z,95.30
2019-04-06T03:51:55.193Z,95.40
2019-04-06T03:54:25.380Z,95.20
2019-04-06T03:56:55.520Z,95.40
2019-04-06T03:59:25.595Z,95.40
2019-04-06T04:01:55.729Z,95.40
2019-04-06T04:04:25.812Z,95.60
2019-04-06T04:06:55.871Z,95.30
2019-04-06T04:09:26.173Z,95.20
2019-04-06T04:11:56.243Z,95.00
2019-04-06T04:14:26.317Z,95.20
2019-04-06T04:16:56.446Z,95.40
2019-04-06T04:19:26.530Z,95.40
2019-04-06T04:21:56.613Z,95.40
2019-04-06T04:24:26.670Z,95.50
2019-04-06T04:26:56.734Z,95.30
2019-04-06T04:29:26.856Z,95.50
2019-04-06T04:31:57.125Z,95.60
2019-04-06T04:34:27.479Z,95.80
2019-04-06T04:36:57.892Z,95.90
2019-04-06T04:39:28.055Z,96.10
2019-04-06T04:41:58.101Z,95.80
2019-04-06T04:44:28.471Z,95.80
2019-04-06T04:46:58.541Z,95.80
2019-04-06T04:49:28.688Z,95.90
2019-04-06T04:51:58.804Z,95.80
2019-04-06T04:54:29.829Z,96.00
2019-04-06T04:56:59.918Z,96.00
2019-04-06T04:59:29.947Z,96.00
2019-04-06T05:02:00.150Z,96.20
2019-04-06T05:04:30.342Z,96.10
2019-04-06T05:07:00.560Z,96.00
2019-04-06T05:09:30.707Z,95.90
2019-04-06T05:12:00.845Z,95.90
2019-04-06T05:14:59.503Z,95.60
2019-04-06T05:17:31.075Z,95.80
2019-04-06T05:20:01.353Z,95.60
2019-04-06T05:22:31.677Z,95.50
2019-04-06T05:25:02.353Z,95.60
2019-04-06T05:27:32.697Z,95.60
2019-04-06T05:30:03.059Z,95.60
2019-04-06T05:32:33.202Z,94.80
2019-04-06T05:35:07.656Z,94.60
2019-04-06T05:37:38.023Z,94.50
2019-04-06T05:40:08.341Z,94.30
2019-04-06T05:42:38.476Z,94.10
2019-04-06T05:45:09.274Z,94.00
2019-04-06T05:47:39.482Z,93.80
2019-04-06T05:50:09.752Z,93.40
2019-04-06T05:52:39.886Z,93.50
2019-04-06T05:55:10.086Z,93.50
2019-04-06T05:57:40.298Z,93.70
2019-04-06T06:00:11.511Z,93.30
2019-04-06T06:02:41.895Z,93.60
2019-04-06T06:05:12.337Z,93.70
2019-04-06T06:07:43.004Z,93.70
2019-04-06T06:10:13.131Z,93.70
2019-04-06T06:12:43.346Z,93.50
2019-04-06T06:15:13.481Z,93.50
2019-04-06T06:17:43.652Z,93.30
2019-04-06T06:20:14.139Z,93.60
2019-04-06T06:22:44.190Z,93.60
2019-04-06T06:25:14.431Z,93.80
2019-04-06T06:27:44.798Z,93.70
2019-04-06T06:30:15.151Z,93.60
2019-04-06T06:32:45.207Z,93.70
2019-04-06T06:35:15.427Z,93.40
2019-04-06T06:37:45.663Z,93.90
2019-04-06T06:40:15.993Z,93.70
2019-04-06T06:42:46.054Z,93.10
2019-04-06T06:45:16.402Z,92.50
2019-04-06T06:47:46.570Z,92.80
2019-04-06T06:50:16.702Z,93.20
2019-04-06T06:52:46.919Z,93.70
2019-04-06T06:55:17.224Z,93.80
2019-04-06T06:57:47.522Z,93.90
2019-04-06T07:00:18.086Z,93.50
2019-04-06T07:02:48.439Z,92.90
2019-04-06T07:05:18.733Z,93.10
2019-04-06T07:07:48.896Z,92.40
2019-04-06T07:10:19.249Z,92.40
2019-04-06T07:12:49.542Z,92.10
2019-04-06T07:15:19.850Z,92.60
2019-04-06T07:17:50.157Z,91.90
2019-04-06T07:20:20.466Z,91.70
2019-04-06T07:22:50.595Z,91.60
2019-04-06T07:25:20.834Z,91.40
2019-04-06T07:27:51.271Z,91.30
2019-04-06T07:30:22.578Z,91.50
2019-04-06T07:32:55.233Z,91.60
2019-04-06T07:35:24.636Z,91.00
2019-04-06T07:37:54.879Z,91.40
2019-04-06T07:40:25.910Z,91.40
2019-04-06T07:42:56.198Z,91.00
2019-04-06T07:45:26.424Z,90.90
2019-04-06T07:47:56.692Z,91.10
2019-04-06T07:50:26.916Z,90.80
2019-04-06T07:52:57.120Z,90.40
2019-04-06T07:55:27.337Z,91.00
2019-04-06T07:57:57.464Z,90.00
2019-04-06T08:00:27.693Z,90.00
2019-04-06T08:02:57.758Z,90.20
2019-04-06T08:05:27.915Z,90.60
2019-04-06T08:07:58.026Z,90.20
2019-04-06T08:10:28.216Z,89.90
2019-04-06T08:12:58.323Z,90.10
2019-04-06T08:15:28.381Z,90.40
2019-04-06T08:17:58.622Z,90.20
2019-04-06T08:20:28.672Z,89.20
2019-04-06T08:22:58.904Z,89.00
2019-04-06T08:25:29.174Z,87.80
2019-04-06T08:27:59.273Z,87.00
2019-04-06T08:30:29.591Z,86.40
2019-04-06T08:32:59.754Z,85.20
2019-04-06T08:35:29.901Z,86.40
2019-04-06T08:37:59.979Z,85.80
2019-04-06T08:40:30.102Z,84.70
2019-04-06T08:43:00.234Z,84.80
2019-04-06T08:45:30.285Z,84.60
2019-04-06T08:48:00.350Z,82.90
2019-04-06T08:50:30.467Z,84.20
2019-04-06T08:53:00.537Z,84.00
2019-04-06T08:55:31.216Z,82.40
2019-04-06T08:58:01.336Z,80.70
2019-04-06T09:00:31.411Z,82.20
2019-04-06T09:03:01.548Z,81.30
2019-04-06T09:05:31.605Z,82.00
2019-04-06T09:08:01.658Z,81.80
2019-04-06T09:10:31.823Z,78.80
2019-04-06T09:13:01.953Z,78.40
2019-04-06T09:15:33.364Z,79.00
2019-04-06T09:18:03.990Z,78.60
2019-04-06T09:20:34.068Z,80.50
2019-04-06T09:23:04.387Z,79.10
2019-04-06T09:25:34.929Z,78.60
2019-04-06T09:28:05.128Z,79.30
2019-04-06T09:30:35.268Z,75.90
2019-04-06T09:33:05.453Z,78.10
2019-04-06T09:35:35.798Z,79.40
2019-04-06T09:38:06.219Z,79.00
2019-04-06T09:40:36.301Z,79.30
2019-04-06T09:43:06.432Z,76.30
2019-04-06T09:45:38.140Z,76.40
2019-04-06T09:48:15.973Z,79.00
2019-04-06T09:50:59.708Z,77.80
2019-04-06T09:53:37.008Z,76.50
2019-04-06T09:56:17.185Z,77.80
2019-04-06T09:59:04.026Z,77.40
2019-04-06T10:01:39.254Z,74.40
2019-04-06T10:04:16.977Z,73.10
2019-04-06T10:06:48.902Z,74.70
2019-04-06T10:09:23.188Z,77.00
2019-04-06T10:11:57.782Z,76.90
2019-04-06T10:14:29.747Z,76.80
2019-04-06T10:17:01.484Z,77.70
2019-04-06T10:19:53.824Z,76.00
2019-04-06T10:22:24.665Z,77.10
2019-04-06T10:25:05.076Z,78.80
2019-04-06T10:27:39.654Z,76.20
2019-04-06T10:30:27.901Z,74.60
2019-04-06T10:33:02.603Z,75.00
2019-04-06T10:35:37.145Z,75.70
2019-04-06T10:38:20.876Z,77.40
2019-04-06T10:40:55.529Z,78.00
2019-04-06T10:43:30.389Z,78.50
2019-04-06T10:46:02.403Z,79.40
2019-04-06T10:48:34.189Z,77.60
2019-04-06T10:51:06.129Z,76.40
2019-04-06T10:53:40.719Z,76.20
2019-04-06T10:56:28.625Z,76.20
2019-04-06T10:59:02.433Z,77.00
2019-04-06T11:01:49.206Z,75.70
2019-04-06T11:04:21.014Z,77.30
2019-04-06T11:07:01.373Z,73.50
2019-04-06T11:09:33.236Z,73.70
2019-04-06T11:12:07.784Z,74.60
2019-04-06T11:14:39.566Z,78.20
2019-04-06T11:17:20.147Z,77.60
2019-04-06T11:19:51.940Z,78.30
2019-04-06T11:22:26.522Z,77.40
2019-04-06T11:25:13.186Z,78.40
2019-04-06T11:28:04.256Z,78.40
2019-04-06T11:30:52.491Z,76.50
2019-04-06T11:33:26.857Z,78.50
2019-04-06T11:36:01.406Z,77.80
2019-04-06T11:38:40.244Z,77.10
2019-04-06T11:41:18.053Z,77.50
2019-04-06T11:43:53.759Z,77.70
2019-04-06T11:46:28.761Z,79.70
2019-04-06T11:49:12.434Z,78.80
2019-04-06T11:51:44.184Z,79.20
2019-04-06T11:54:25.406Z,79.00
2019-04-06T11:57:03.329Z,77.40
2019-04-06T11:59:53.302Z,75.00
2019-04-06T12:02:27.617Z,74.40
2019-04-06T12:05:02.415Z,75.60
2019-04-06T12:07:50.601Z,76.80
2019-04-06T12:10:22.314Z,76.40
2019-04-06T12:13:03.404Z,75.20
2019-04-06T12:15:35.121Z,75.30
2019-04-06T12:18:19.340Z,75.80
2019-04-06T12:20:59.877Z,74.80
2019-04-06T12:23:33.435Z,73.70
2019-04-06T12:26:23.444Z,74.50
2019-04-06T12:29:01.534Z,73.40
2019-04-06T12:31:50.073Z,73.30
2019-04-06T12:34:39.263Z,74.00
2019-04-06T12:37:27.334Z,72.30
2019-04-06T12:40:03.108Z,71.10
2019-04-06T12:42:42.523Z,72.90
2019-04-06T12:45:29.469Z,71.40
2019-04-06T12:48:03.986Z,71.00
2019-04-06T12:50:54.066Z,72.20
2019-04-06T12:53:31.764Z,69.80
2019-04-06T12:56:09.268Z,71.40
2019-04-06T12:58:41.130Z,69.40
2019-04-06T13:01:18.778Z,69.20
2019-04-06T13:03:56.245Z,68.70
2019-04-06T13:06:31.071Z,70.20
2019-04-06T13:09:05.489Z,69.70
2019-04-06T13:11:46.222Z,70.00
2019-04-06T13:14:27.215Z,71.50
2019-04-06T13:17:02.158Z,70.50
2019-04-06T13:19:34.272Z,69.50
2019-04-06T13:22:22.261Z,70.20
2019-04-06T13:24:53.260Z,71.50
2019-04-06T13:27:36.706Z,71.10
2019-04-06T13:30:18.001Z,70.20
2019-04-06T13:32:52.361Z,70.10
2019-04-06T13:35:36.170Z,72.60
2019-04-06T13:38:17.755Z,72.70
2019-04-06T13:41:02.233Z,72.80
2019-04-06T13:43:46.044Z,72.70
2019-04-06T13:46:20.628Z,71.80
2019-04-06T13:49:08.720Z,68.40
2019-04-06T13:51:52.195Z,68.30
2019-04-06T13:54:26.733Z,69.60
2019-04-06T13:57:01.078Z,69.20
2019-04-06T13:59:39.019Z,69.80
2019-04-06T14:02:16.693Z,70.30
2019-04-06T14:05:04.428Z,70.40
2019-04-06T14:07:36.125Z,69.90
2019-04-06T14:10:25.042Z,71.30
2019-04-06T14:13:02.715Z,68.50
2019-04-06T14:15:43.385Z,67.60
2019-04-06T14:18:21.161Z,69.50
2019-04-06T14:21:09.656Z,71.00
2019-04-06T14:23:43.941Z,72.60
2019-04-06T14:26:34.440Z,71.40
2019-04-06T14:29:24.648Z,72.30
2019-04-06T14:32:02.511Z,70.10
2019-04-06T14:34:46.305Z,68.20
2019-04-06T14:37:20.691Z,71.10
2019-04-06T14:39:58.440Z,70.20
2019-04-06T14:42:32.888Z,69.10
2019-04-06T14:45:13.331Z,70.50
2019-04-06T14:47:50.526Z,69.20
2019-04-06T14:50:22.236Z,68.70
2019-04-06T14:53:10.314Z,70.60
2019-04-06T14:55:44.727Z,71.10
2019-04-06T14:58:34.874Z,72.80
2019-04-06T15:01:09.507Z,72.80
2019-04-06T15:03:53.050Z,70.90
2019-04-06T15:06:27.478Z,69.50
2019-04-06T15:09:02.057Z,70.20
2019-04-06T15:11:38.167Z,73.20
2019-04-06T15:14:28.264Z,71.80
2019-04-06T15:17:16.261Z,70.10
2019-04-06T15:19:48.083Z,69.90
2019-04-06T15:22:19.788Z,69.10
2019-04-06T15:24:54.190Z,67.90
2019-04-06T15:27:28.613Z,69.50
2019-04-06T15:30:03.265Z,69.40
2019-04-06T15:32:35.589Z,70.70
2019-04-06T15:35:11.406Z,71.50
2019-04-06T15:37:45.741Z,70.30
2019-04-06T15:40:17.574Z,72.10
2019-04-06T15:42:52.514Z,70.30
2019-04-06T15:45:36.308Z,69.10
2019-04-06T15:48:36.496Z,69.50
2019-04-06T15:51:12.970Z,68.00
2019-04-06T15:53:44.704Z,68.20
2019-04-06T16:53:05.103Z,77.10
2019-04-06T16:55:39.634Z,78.20
2019-04-06T16:58:23.380Z,78.00
2019-04-06T17:00:57.978Z,77.50
2019-04-06T17:03:38.768Z,78.50
2019-04-06T17:06:29.093Z,79.60
2019-04-06T17:09:17.653Z,78.70
2019-04-06T17:12:07.964Z,80.00
2019-04-06T17:14:42.626Z,80.60
2019-04-06T17:17:30.599Z,80.70
2019-04-06T17:20:17.913Z,80.50
2019-04-06T17:22:49.551Z,80.50
2019-04-06T17:25:27.136Z,81.20
2019-04-06T17:28:04.824Z,82.00
2019-04-06T17:30:37.146Z,84.00
2019-04-06T17:33:18.547Z,83.70
2019-04-06T17:35:52.020Z,83.90
2019-04-06T17:38:29.830Z,83.90
2019-04-06T17:41:13.575Z,83.80
2019-04-06T17:43:54.285Z,84.20
2019-04-06T17:46:34.887Z,84.80
2019-04-06T17:49:09.326Z,84.80
2019-04-06T17:51:41.108Z,84.80
2019-04-06T17:54:29.199Z,85.70
2019-04-06T17:57:04.911Z,84.80
2019-04-06T17:59:39.573Z,84.80
2019-04-06T18:02:14.122Z,84.40
2019-04-06T18:04:57.624Z,84.90
2019-04-06T18:07:29.782Z,85.40
2019-04-06T18:10:04.593Z,85.80
2019-04-06T18:12:54.338Z,86.60
2019-04-06T18:15:24.950Z,86.40
2019-04-06T18:17:55.217Z,86.40
2019-04-06T18:20:25.294Z,85.90
2019-04-06T18:22:55.358Z,86.00
2019-04-06T18:25:25.503Z,85.50
2019-04-06T18:27:56.181Z,85.20
2019-04-06T18:30:26.921Z,85.10
2019-04-06T18:33:01.781Z,85.70
2019-04-06T18:35:30.391Z,86.40
2019-04-06T18:38:04.985Z,85.80
2019-04-06T18:40:35.126Z,86.10
2019-04-06T18:43:05.320Z,86.40
2019-04-06T18:45:36.994Z,86.60
2019-04-06T18:48:07.125Z,87.30
2019-04-06T18:50:39.169Z,86.50
2019-04-06T18:53:09.382Z,86.80
2019-04-06T18:55:39.503Z,86.80
2019-04-06T18:58:12.760Z,86.90
2019-04-06T19:00:43.661Z,86.60
2019-04-06T19:03:15.446Z,86.00
2019-04-06T19:05:46.234Z,86.80
2019-04-06T19:08:16.431Z,86.90
2019-04-06T19:10:46.718Z,86.70
2019-04-06T19:13:16.830Z,87.00
2019-04-06T19:15:47.166Z,86.50
2019-04-06T19:18:17.260Z,87.20
2019-04-06T19:20:47.455Z,88.50
2019-04-06T19:23:17.532Z,88.70
2019-04-06T19:25:47.674Z,88.30
2019-04-06T19:28:17.728Z,88.70
2019-04-06T19:30:48.700Z,89.80
2019-04-06T19:33:25.216Z,90.00
2019-04-06T19:35:50.686Z,89.40
2019-04-06T19:38:20.876Z,89.60
2019-04-06T19:40:51.003Z,90.40
2019-04-06T19:43:21.844Z,90.10
2019-04-06T19:45:52.106Z,89.70
2019-04-06T19:48:24.548Z,90.00
2019-04-06T19:50:54.586Z,90.20
2019-04-06T19:53:24.659Z,90.10
2019-04-06T19:55:54.934Z,90.30
2019-04-06T19:58:25.099Z,90.50
2019-04-06T20:00:55.153Z,90.30
2019-04-06T20:03:34.084Z,90.10
2019-04-06T20:05:57.232Z,90.00
2019-04-06T20:08:27.444Z,90.10
2019-04-06T20:10:57.577Z,90.20
2019-04-06T20:13:28.667Z,90.20
2019-04-06T20:15:59.844Z,90.30
2019-04-06T20:18:30.384Z,90.40
2019-04-06T20:21:00.874Z,90.50
2019-04-06T20:23:31.109Z,90.60
2019-04-06T20:26:01.242Z,90.70
2019-04-06T20:28:31.444Z,90.60
2019-04-06T20:31:01.659Z,90.80
2019-04-06T20:33:31.732Z,90.90
2019-04-06T20:36:02.420Z,91.20
2019-04-06T20:38:32.628Z,91.10
2019-04-06T20:41:03.006Z,91.50
2019-04-06T20:43:33.165Z,91.70
2019-04-06T20:46:03.305Z,92.00
2019-04-06T20:48:33.720Z,92.00
2019-04-06T20:51:04.161Z,92.10
2019-04-06T20:53:34.316Z,92.70
2019-04-06T20:56:04.554Z,92.60
2019-04-06T20:58:34.737Z,92.70
2019-04-06T21:01:05.034Z,92.90
2019-04-06T21:03:35.641Z,93.10
2019-04-06T21:06:06.409Z,93.20
2019-04-06T21:08:36.634Z,93.30
2019-04-06T21:11:07.201Z,93.40
2019-04-06T21:13:38.025Z,93.00
2019-04-06T21:16:08.178Z,93.30
2019-04-06T21:18:38.903Z,93.20
2019-04-06T21:21:09.163Z,93.00
2019-04-06T21:23:39.309Z,93.00
2019-04-06T21:26:09.433Z,93.60
2019-04-06T21:28:40.638Z,93.40
2019-04-06T21:31:10.893Z,93.30
2019-04-06T21:33:41.031Z,93.30
2019-04-06T21:36:11.335Z,93.00
2019-04-06T21:38:41.464Z,93.20
2019-04-06T21:41:11.687Z,93.70
2019-04-06T21:43:41.827Z,93.30
2019-04-06T21:46:12.197Z,93.20
2019-04-06T21:51:29.731Z,93.50
2019-04-06T21:53:59.898Z,94.20
2019-04-06T21:56:31.002Z,94.50
2019-04-06T21:59:01.616Z,94.30
2019-04-06T22:01:32.824Z,94.20
2019-04-06T22:04:03.158Z,94.00
2019-04-06T22:06:34.872Z,93.90
2019-04-06T22:09:09.445Z,93.60
2019-04-06T22:11:40.003Z,93.50
2019-04-06T22:14:10.262Z,93.90
2019-04-06T22:16:40.451Z,93.70
2019-04-06T22:19:11.145Z,93.80
2019-04-06T22:21:42.950Z,93.90
2019-04-06T22:24:13.721Z,94.00
2019-04-06T22:26:44.341Z,94.00
2019-04-06T22:29:14.503Z,94.00
2019-04-06T22:31:44.890Z,93.70
2019-04-06T22:34:15.016Z,93.80
2019-04-06T22:36:45.158Z,94.10
2019-04-06T22:39:15.398Z,94.20
2019-04-06T22:41:45.640Z,94.10
2019-04-06T22:44:15.663Z,94.00
2019-04-06T22:46:46.329Z,94.30
2019-04-06T22:49:17.813Z,94.60
2019-04-06T22:51:48.304Z,94.70
2019-04-06T22:54:18.522Z,94.60
2019-04-06T22:56:48.709Z,94.50
2019-04-06T22:59:18.886Z,94.50
2019-04-06T23:01:49.483Z,94.40
2019-04-06T23:04:21.285Z,94.30
2019-04-06T23:06:56.303Z,94.30
2019-04-06T23:09:26.908Z,94.50
2019-04-06T23:11:57.121Z,94.50
2019-04-06T23:14:30.169Z,94.60
2019-04-06T23:17:02.108Z,94.80
2019-04-06T23:19:34.100Z,95.10
2019-04-06T23:22:04.607Z,95.60
2019-04-06T23:24:34.791Z,95.70
2019-04-06T23:27:05.641Z,95.70
2019-04-06T23:29:36.346Z,95.50
2019-04-06T23:32:06.587Z,95.50
2019-04-06T23:34:36.689Z,95.40
2019-04-06T23:37:07.214Z,96.00
2019-04-06T23:39:37.757Z,96.00
2019-04-06T23:42:08.477Z,95.30
2019-04-06T23:44:38.564Z,95.90
2019-04-06T23:47:08.674Z,96.70
2019-04-06T23:49:38.695Z,96.80
2019-04-06T23:52:09.176Z,96.90
2019-04-06T23:54:39.918Z,96.90
2019-04-06T23:57:10.232Z,97.00
2019-04-06T23:59:40.329Z,97.10
